Time;durP1;ratioP1;P1;durP2;ratioP2;P2;SDS_P1;SDS_P2;PMS_P1;PMS_P2;Temp;Humidity;BMP_temperature;BMP_pressure;BME280_temperature;BME280_humidity;BME280_pressure;Samples;Min_cycle;Max_cycle;Signal;HPM_P1;HPM_P2
2022/10/22 00:01:42;;;;;;;6.50;5.15;;;13.10;99.90;;;;;;5071465;28;20043;-68
2022/10/22 00:04:08;;;;;;;5.35;4.85;;;13.10;99.90;;;;;;5065992;28;20085;-66
2022/10/22 00:06:34;;;;;;;7.70;4.60;;;13.10;99.90;;;;;;5071658;28;20054;-65
2022/10/22 00:08:59;;;;;;;5.45;4.30;;;13.10;99.90;;;;;;5069311;28;20048;-66
2022/10/22 00:11:25;;;;;;;8.70;4.60;;;13.00;99.90;;;;;;5089011;28;20119;-66
2022/10/22 00:13:50;;;;;;;8.13;4.93;;;13.00;99.90;;;;;;5068164;28;20172;-68
2022/10/22 00:16:16;;;;;;;6.60;4.43;;;13.00;99.90;;;;;;5072657;28;20038;-66
2022/10/22 00:18:42;;;;;;;7.88;5.18;;;12.90;99.90;;;;;;5054204;28;20448;-67
2022/10/22 00:21:08;;;;;;;6.65;4.75;;;13.00;99.90;;;;;;5048024;28;20149;-66
2022/10/22 00:23:34;;;;;;;4.80;4.25;;;12.90;99.90;;;;;;5053897;28;20040;-66
2022/10/22 00:25:59;;;;;;;10.57;4.93;;;12.90;99.90;;;;;;5072060;28;20042;-66
2022/10/22 00:28:25;;;;;;;6.97;4.72;;;12.80;99.90;;;;;;5072559;28;20401;-68
2022/10/22 00:30:56;;;;;;;5.72;4.30;;;12.80;99.90;;;;;;5073214;28;20032;-66
2022/10/22 00:33:21;;;;;;;7.32;4.60;;;12.80;99.90;;;;;;5072464;28;20038;-66
2022/10/22 00:35:47;;;;;;;7.45;4.90;;;12.80;99.90;;;;;;5068823;28;20044;-67
2022/10/22 00:38:12;;;;;;;6.53;4.88;;;12.80;99.90;;;;;;5071072;28;20119;-65
2022/10/22 00:40:38;;;;;;;13.52;5.68;;;12.80;99.90;;;;;;5069400;28;20055;-67
2022/10/22 00:43:04;;;;;;;8.88;5.63;;;12.80;99.90;;;;;;5071071;28;20043;-65
2022/10/22 00:45:29;;;;;;;8.20;5.10;;;12.80;99.90;;;;;;5073165;28;20084;-65
2022/10/22 00:48:00;;;;;;;5.65;4.90;;;12.70;99.90;;;;;;5072334;28;20048;-66
2022/10/22 00:50:31;;;;;;;7.68;5.60;;;12.80;99.90;;;;;;5073053;28;20098;-65
2022/10/22 00:52:58;;;;;;;5.88;4.70;;;12.70;99.90;;;;;;5103913;28;20036;-67
2022/10/22 00:55:26;;;;;;;8.50;5.35;;;12.70;99.90;;;;;;5057303;28;20471;-65
2022/10/22 00:57:54;;;;;;;8.60;5.28;;;12.70;99.90;;;;;;5071265;28;20067;-68
2022/10/22 01:00:21;;;;;;;6.18;4.70;;;12.70;99.90;;;;;;5072274;28;20486;-67
2022/10/22 01:02:49;;;;;;;8.70;5.45;;;12.70;99.90;;;;;;5071525;28;21086;-65
2022/10/22 01:05:15;;;;;;;10.73;5.85;;;12.70;99.90;;;;;;5071282;28;20036;-67
2022/10/22 01:07:45;;;;;;;8.25;5.40;;;12.70;99.90;;;;;;5075914;28;20044;-65
2022/10/22 01:10:18;;;;;;;7.97;5.57;;;12.70;99.90;;;;;;5072289;28;20048;-66
2022/10/22 01:13:04;;;;;;;9.38;5.38;;;12.70;99.90;;;;;;5086932;28;20430;-67
2022/10/22 01:15:56;;;;;;;7.93;5.20;;;12.70;99.90;;;;;;5076605;28;20036;-66
2022/10/22 01:18:23;;;;;;;9.50;6.13;;;12.70;99.90;;;;;;5035085;28;20123;-67
2022/10/22 01:21:11;;;;;;;7.85;5.97;;;12.70;99.90;;;;;;5070816;28;20040;-66
2022/10/22 01:24:06;;;;;;;6.88;5.65;;;12.70;99.90;;;;;;5070356;28;20115;-67
2022/10/22 01:26:57;;;;;;;9.68;6.40;;;12.70;99.90;;;;;;5101085;28;20213;-67
2022/10/22 01:29:32;;;;;;;10.85;5.97;;;12.70;99.90;;;;;;5074717;28;20048;-67
2022/10/22 01:32:10;;;;;;;8.95;6.25;;;12.70;99.90;;;;;;5071340;28;20096;-67
2022/10/22 01:34:39;;;;;;;8.45;6.43;;;12.70;99.90;;;;;;5074819;28;20457;-66
2022/10/22 01:37:06;;;;;;;9.30;6.82;;;12.70;99.90;;;;;;5072899;28;20047;-66
2022/10/22 01:39:35;;;;;;;8.73;6.53;;;12.70;99.90;;;;;;5070859;28;20043;-67
2022/10/22 01:42:00;;;;;;;10.63;6.18;;;12.70;99.90;;;;;;5072124;28;20039;-66
2022/10/22 01:44:31;;;;;;;9.13;6.15;;;12.70;99.90;;;;;;5084412;28;20105;-67
2022/10/22 01:47:06;;;;;;;9.73;6.43;;;12.80;99.90;;;;;;5072201;28;20104;-66
2022/10/22 01:50:12;;;;;;;11.45;6.65;;;12.80;99.90;;;;;;5068966;28;20451;-66
2022/10/22 01:53:21;;;;;;;7.63;6.43;;;12.80;99.90;;;;;;4990798;28;20134;-66
2022/10/22 01:56:05;;;;;;;9.25;5.97;;;12.80;99.90;;;;;;5007224;28;20057;-66
2022/10/22 01:58:52;;;;;;;6.13;5.40;;;12.80;99.90;;;;;;4985674;28;20037;-66
2022/10/22 02:01:38;;;;;;;11.25;6.95;;;12.80;99.90;;;;;;5005910;28;20453;-66
2022/10/22 02:04:19;;;;;;;9.23;6.60;;;12.80;99.90;;;;;;4972729;28;20108;-66
2022/10/22 02:06:47;;;;;;;9.30;6.72;;;12.80;99.90;;;;;;4991866;28;20141;-67
2022/10/22 02:09:18;;;;;;;9.70;6.40;;;12.80;99.90;;;;;;4989078;28;20413;-67
2022/10/22 02:11:45;;;;;;;11.23;6.90;;;12.80;99.90;;;;;;4991236;28;20560;-64
2022/10/22 02:14:12;;;;;;;9.40;6.20;;;12.80;99.90;;;;;;4988936;28;20050;-66
2022/10/22 02:16:44;;;;;;;7.43;6.22;;;12.80;99.90;;;;;;4987013;28;20128;-66
2022/10/22 02:19:27;;;;;;;9.57;6.57;;;12.70;99.90;;;;;;4991147;28;20115;-64
2022/10/22 02:21:54;;;;;;;9.70;6.35;;;12.70;99.90;;;;;;4991654;28;20088;-66
2022/10/22 02:24:21;;;;;;;9.15;6.10;;;12.70;99.90;;;;;;4989887;28;20473;-65
2022/10/22 02:27:08;;;;;;;16.50;7.43;;;12.70;99.90;;;;;;5015825;28;20047;-65
2022/10/22 02:29:42;;;;;;;9.65;6.30;;;12.70;99.90;;;;;;5070165;28;20113;-67
2022/10/22 02:32:11;;;;;;;8.45;6.07;;;12.70;99.90;;;;;;5069796;28;20123;-66
2022/10/22 02:34:37;;;;;;;9.88;6.45;;;12.60;99.90;;;;;;5074040;28;20040;-66
2022/10/22 02:37:04;;;;;;;13.88;7.05;;;12.60;99.90;;;;;;5072328;28;20052;-66
2022/10/22 02:39:31;;;;;;;11.27;6.38;;;12.60;99.90;;;;;;5073164;28;20072;-67
2022/10/22 02:41:58;;;;;;;8.63;5.85;;;12.60;99.90;;;;;;5072358;28;20113;-65
2022/10/22 02:44:24;;;;;;;10.57;6.95;;;12.60;99.90;;;;;;5073943;28;20434;-65
2022/10/22 02:46:50;;;;;;;9.13;6.40;;;12.60;99.90;;;;;;5073430;28;20039;-65
2022/10/22 02:49:16;;;;;;;9.13;6.70;;;12.60;99.90;;;;;;5072420;28;20379;-65
2022/10/22 02:51:41;;;;;;;11.82;7.22;;;12.50;99.90;;;;;;5058436;28;20040;-67
2022/10/22 02:54:07;;;;;;;10.85;6.47;;;12.50;99.90;;;;;;5073763;28;20531;-67
2022/10/22 02:56:33;;;;;;;11.48;6.32;;;12.50;99.90;;;;;;5070277;28;20041;-66
2022/10/22 02:58:58;;;;;;;9.18;6.30;;;12.50;99.90;;;;;;5073244;28;20074;-66
2022/10/22 03:01:24;;;;;;;9.95;6.68;;;12.50;99.90;;;;;;5070044;28;20493;-67
2022/10/22 03:03:50;;;;;;;9.95;6.45;;;12.50;99.90;;;;;;5071816;28;20040;-66
2022/10/22 03:06:15;;;;;;;7.97;5.88;;;12.50;99.90;;;;;;5072040;28;20044;-67
2022/10/22 03:08:41;;;;;;;8.95;6.47;;;12.50;99.90;;;;;;5071073;28;20173;-65
2022/10/22 03:11:07;;;;;;;6.82;6.07;;;12.50;99.90;;;;;;5059607;28;20048;-66
2022/10/22 03:13:33;;;;;;;10.60;6.63;;;12.50;99.90;;;;;;5075061;28;20398;-66
2022/10/22 03:15:58;;;;;;;10.13;6.57;;;12.50;99.90;;;;;;5075928;28;20043;-65
2022/10/22 03:18:24;;;;;;;12.40;7.25;;;12.50;99.90;;;;;;5074920;28;20051;-65
2022/10/22 03:20:50;;;;;;;9.52;6.50;;;12.50;99.90;;;;;;5074728;28;20036;-66
2022/10/22 03:23:18;;;;;;;10.40;6.53;;;12.50;99.90;;;;;;5072164;28;20510;-66
2022/10/22 03:25:45;;;;;;;11.10;6.47;;;12.40;99.90;;;;;;5058117;28;20070;-67
2022/10/22 03:28:14;;;;;;;10.63;7.07;;;12.50;99.90;;;;;;5057672;28;20124;-68
2022/10/22 03:30:39;;;;;;;11.55;6.68;;;12.50;99.90;;;;;;5074014;28;20509;-65
2022/10/22 03:33:05;;;;;;;8.38;6.07;;;12.50;99.90;;;;;;5074815;28;20067;-66
2022/10/22 03:35:31;;;;;;;11.55;7.07;;;12.40;99.90;;;;;;5074554;28;20063;-65
2022/10/22 03:37:59;;;;;;;10.05;6.25;;;12.40;99.90;;;;;;5074053;28;20048;-65
2022/10/22 03:40:25;;;;;;;10.93;6.75;;;12.40;99.90;;;;;;5071556;28;20525;-66
2022/10/22 03:42:52;;;;;;;9.25;7.00;;;12.50;99.90;;;;;;5074218;28;20036;-66
2022/10/22 03:45:17;;;;;;;10.57;6.03;;;12.40;99.90;;;;;;5074118;28;20048;-65
2022/10/22 03:47:43;;;;;;;9.30;6.13;;;12.50;99.90;;;;;;5074333;28;20040;-67
2022/10/22 03:50:09;;;;;;;11.00;6.57;;;12.40;99.90;;;;;;5074488;28;20043;-66
2022/10/22 03:52:37;;;;;;;9.15;6.07;;;12.40;99.90;;;;;;5070045;28;20040;-67
2022/10/22 03:55:03;;;;;;;10.55;6.88;;;12.40;99.90;;;;;;5073347;28;20039;-66
2022/10/22 03:57:29;;;;;;;10.18;6.75;;;12.40;99.90;;;;;;5075207;28;20421;-66
2022/10/22 03:59:55;;;;;;;9.55;6.57;;;12.40;99.90;;;;;;5073754;28;20133;-67
2022/10/22 04:02:20;;;;;;;9.10;6.80;;;12.40;99.90;;;;;;5072534;28;20517;-66
2022/10/22 04:04:46;;;;;;;11.30;6.68;;;12.40;99.90;;;;;;5073550;28;20101;-67
2022/10/22 04:07:12;;;;;;;9.75;7.22;;;12.40;99.90;;;;;;5073738;28;20379;-66
2022/10/22 04:09:37;;;;;;;12.23;6.90;;;12.30;99.90;;;;;;5056993;28;20153;-65
2022/10/22 04:12:05;;;;;;;8.82;6.22;;;12.30;99.90;;;;;;5087989;28;20418;-67
2022/10/22 04:14:31;;;;;;;12.00;7.60;;;12.30;99.90;;;;;;5072024;28;20047;-67
2022/10/22 04:16:57;;;;;;;10.55;7.43;;;12.30;99.90;;;;;;5070778;28;20479;-65
2022/10/22 04:19:22;;;;;;;10.98;7.68;;;12.30;99.90;;;;;;5073735;28;20135;-66
2022/10/22 04:21:48;;;;;;;10.38;7.65;;;12.30;99.90;;;;;;5072725;28;20127;-66
2022/10/22 04:24:14;;;;;;;13.82;7.78;;;12.30;99.90;;;;;;5073220;28;20486;-66
2022/10/22 04:26:40;;;;;;;11.55;8.00;;;12.30;99.90;;;;;;5089658;28;20482;-66
2022/10/22 04:29:06;;;;;;;12.10;7.30;;;12.30;99.90;;;;;;5072198;28;20042;-67
2022/10/22 04:31:32;;;;;;;12.38;7.65;;;12.30;99.90;;;;;;5070975;28;20032;-65
2022/10/22 04:33:59;;;;;;;10.43;7.80;;;12.30;99.90;;;;;;5071823;28;20094;-65
2022/10/22 04:36:26;;;;;;;8.40;7.13;;;12.30;99.90;;;;;;5073500;28;20550;-65
2022/10/22 04:39:00;;;;;;;10.95;7.85;;;12.30;99.90;;;;;;5071724;28;20063;-65
2022/10/22 04:41:28;;;;;;;14.20;7.75;;;12.30;99.90;;;;;;5073212;28;20111;-65
2022/10/22 04:43:55;;;;;;;12.23;8.00;;;12.30;99.90;;;;;;5067620;28;20069;-67
2022/10/22 04:46:20;;;;;;;11.73;7.35;;;12.30;99.90;;;;;;5082522;28;20470;-65
2022/10/22 04:48:46;;;;;;;14.02;8.18;;;12.40;99.90;;;;;;5092318;28;20119;-66
2022/10/22 04:51:18;;;;;;;13.32;7.53;;;12.40;99.90;;;;;;5090009;28;20119;-67
2022/10/22 04:53:44;;;;;;;12.82;8.02;;;12.40;99.90;;;;;;5071149;28;20067;-66
2022/10/22 04:56:20;;;;;;;11.63;7.20;;;12.40;99.90;;;;;;5092023;28;20043;-66
2022/10/22 04:58:51;;;;;;;14.65;7.65;;;12.40;99.90;;;;;;5092844;28;20083;-66
2022/10/22 05:01:19;;;;;;;12.38;7.25;;;12.40;99.90;;;;;;5090866;28;20044;-66
2022/10/22 05:03:47;;;;;;;10.20;7.18;;;12.40;99.90;;;;;;5073219;28;20040;-66
2022/10/22 05:06:13;;;;;;;11.45;7.32;;;12.40;99.90;;;;;;5091960;28;20044;-66
2022/10/22 05:08:39;;;;;;;11.73;7.63;;;12.40;99.90;;;;;;5090975;28;20040;-66
2022/10/22 05:11:33;;;;;;;9.32;7.38;;;12.40;99.90;;;;;;5088378;28;20043;-67
2022/10/22 05:14:01;;;;;;;11.65;7.07;;;12.40;99.90;;;;;;5086333;28;20130;-65
2022/10/22 05:16:29;;;;;;;11.13;7.35;;;12.40;99.90;;;;;;5087690;28;20040;-65
2022/10/22 05:18:56;;;;;;;11.10;7.18;;;12.40;99.90;;;;;;5071988;28;20040;-66
2022/10/22 05:21:22;;;;;;;12.20;7.00;;;12.40;99.90;;;;;;5089863;28;20048;-67
2022/10/22 05:23:49;;;;;;;11.68;7.47;;;12.40;99.90;;;;;;5091581;28;20043;-67
2022/10/22 05:26:17;;;;;;;13.77;7.72;;;12.40;99.90;;;;;;5086900;28;20040;-66
2022/10/22 05:28:43;;;;;;;14.85;7.50;;;12.50;99.90;;;;;;5086891;28;20044;-66
2022/10/22 05:31:11;;;;;;;11.70;7.57;;;12.40;99.90;;;;;;5070652;28;20042;-67
2022/10/22 05:33:37;;;;;;;9.05;7.13;;;12.40;99.90;;;;;;5091592;28;20060;-65
2022/10/22 05:36:05;;;;;;;10.73;7.57;;;12.40;99.90;;;;;;5089632;28;20545;-65
2022/10/22 05:38:32;;;;;;;12.50;7.78;;;12.40;99.90;;;;;;5088846;28;20085;-67
2022/10/22 05:41:13;;;;;;;13.25;7.68;;;12.40;99.90;;;;;;5087947;28;20631;-66
2022/10/22 05:43:39;;;;;;;10.00;7.18;;;12.40;99.90;;;;;;5090494;28;20466;-65
2022/10/22 05:46:07;;;;;;;11.57;6.93;;;12.40;99.90;;;;;;5088673;28;20055;-66
2022/10/22 05:48:33;;;;;;;10.90;7.43;;;12.50;99.90;;;;;;5089807;28;20040;-66
2022/10/22 05:51:07;;;;;;;9.55;7.10;;;12.50;99.90;;;;;;5091980;28;20540;-66
2022/10/22 05:53:34;;;;;;;10.32;6.88;;;12.50;99.90;;;;;;5091097;28;20032;-66
2022/10/22 05:56:06;;;;;;;11.55;7.30;;;12.40;99.90;;;;;;5086156;28;20076;-67
2022/10/22 05:58:32;;;;;;;11.43;7.35;;;12.40;99.90;;;;;;5088743;28;20032;-65
2022/10/22 06:01:06;;;;;;;11.07;6.97;;;12.50;99.90;;;;;;5087296;28;20137;-65
2022/10/22 06:03:32;;;;;;;12.45;6.95;;;12.40;99.90;;;;;;5083122;28;20097;-66
2022/10/22 06:06:11;;;;;;;30.10;7.95;;;12.50;99.90;;;;;;5071876;28;20276;-67
2022/10/22 06:08:36;;;;;;;11.20;7.45;;;12.40;99.90;;;;;;5075025;28;20055;-67
2022/10/22 06:11:02;;;;;;;10.40;6.93;;;12.50;99.90;;;;;;5075950;28;20101;-65
2022/10/22 06:13:28;;;;;;;11.38;6.68;;;12.50;99.90;;;;;;5090058;28;20078;-66
2022/10/22 06:15:53;;;;;;;9.38;5.97;;;12.50;99.90;;;;;;5091393;28;20075;-66
2022/10/22 06:18:19;;;;;;;10.40;6.50;;;12.50;99.90;;;;;;5093003;28;20040;-66
2022/10/22 06:20:46;;;;;;;10.18;6.70;;;12.60;99.90;;;;;;5092711;28;20047;-65
2022/10/22 06:23:12;;;;;;;10.73;6.38;;;12.60;99.90;;;;;;5092639;28;20055;-65
2022/10/22 06:25:37;;;;;;;14.55;7.45;;;12.60;99.90;;;;;;5091715;28;20028;-66
2022/10/22 06:28:03;;;;;;;12.70;6.35;;;12.60;99.90;;;;;;5092716;28;20036;-66
2022/10/22 06:30:29;;;;;;;11.40;6.55;;;12.60;99.90;;;;;;5076281;28;20088;-66
2022/10/22 06:32:55;;;;;;;12.50;6.00;;;12.60;99.90;;;;;;5092531;28;20044;-65
2022/10/22 06:35:20;;;;;;;11.55;6.07;;;12.60;99.90;;;;;;5085135;28;20089;-65
2022/10/22 06:37:46;;;;;;;11.88;6.70;;;12.70;99.90;;;;;;5091704;28;20032;-67
2022/10/22 06:40:12;;;;;;;10.45;5.93;;;12.70;99.90;;;;;;5092556;28;20482;-66
2022/10/22 06:42:38;;;;;;;13.40;6.45;;;12.70;99.90;;;;;;5092154;28;20043;-66
2022/10/22 06:45:04;;;;;;;8.77;5.78;;;12.70;99.90;;;;;;5090886;28;20048;-66
2022/10/22 06:47:32;;;;;;;10.90;6.38;;;12.70;99.90;;;;;;5093425;28;20417;-66
2022/10/22 06:49:57;;;;;;;11.20;5.82;;;12.70;99.90;;;;;;5089752;28;20044;-67
2022/10/22 06:52:23;;;;;;;10.77;5.97;;;12.70;99.90;;;;;;5089291;28;20081;-67
2022/10/22 06:54:49;;;;;;;10.98;6.03;;;12.80;99.90;;;;;;5089222;28;20072;-66
2022/10/22 06:57:14;;;;;;;12.27;6.13;;;12.80;99.90;;;;;;5089512;28;20115;-68
2022/10/22 06:59:40;;;;;;;10.38;6.10;;;12.80;99.90;;;;;;5091672;28;20039;-68
2022/10/22 07:02:07;;;;;;;10.95;5.63;;;12.90;99.90;;;;;;5089506;28;20109;-68
2022/10/22 07:04:32;;;;;;;12.15;5.72;;;12.90;99.90;;;;;;5074902;28;20031;-68
2022/10/22 07:06:58;;;;;;;11.23;5.15;;;13.00;99.90;;;;;;5091723;28;20441;-68
2022/10/22 07:09:24;;;;;;;9.68;5.30;;;13.00;99.90;;;;;;5091729;28;20043;-67
2022/10/22 07:11:49;;;;;;;9.05;6.13;;;13.00;99.90;;;;;;5091457;28;20040;-68
2022/10/22 07:14:15;;;;;;;13.48;5.63;;;13.10;99.90;;;;;;5071335;28;20051;-68
2022/10/22 07:16:45;;;;;;;10.48;6.00;;;13.10;99.90;;;;;;5091495;28;20031;-68
2022/10/22 07:19:12;;;;;;;11.18;5.95;;;13.10;99.90;;;;;;5090806;28;20073;-67
2022/10/22 07:21:38;;;;;;;11.48;5.47;;;13.20;99.90;;;;;;5074030;28;20048;-68
2022/10/22 07:24:04;;;;;;;6.70;5.07;;;13.20;99.90;;;;;;5090734;28;20034;-68
2022/10/22 07:26:31;;;;;;;12.63;5.70;;;13.20;99.90;;;;;;5089800;28;20122;-67
2022/10/22 07:28:58;;;;;;;10.73;5.30;;;13.20;99.90;;;;;;5091343;28;20063;-67
2022/10/22 07:31:23;;;;;;;11.02;5.10;;;13.20;99.90;;;;;;5088828;28;21908;-67
2022/10/22 07:33:49;;;;;;;9.90;4.70;;;13.20;99.90;;;;;;5091412;28;20131;-68
2022/10/22 07:36:18;;;;;;;8.20;5.10;;;13.20;99.90;;;;;;5086601;28;20078;-67
2022/10/22 07:38:46;;;;;;;12.43;4.95;;;13.30;99.90;;;;;;5094934;28;20048;-68
2022/10/22 07:41:13;;;;;;;10.13;4.85;;;13.20;99.90;;;;;;5092053;28;20416;-68
2022/10/22 07:43:39;;;;;;;10.95;4.80;;;13.20;99.90;;;;;;5090865;28;20391;-68
2022/10/22 07:46:05;;;;;;;15.77;6.00;;;13.30;99.90;;;;;;5090458;28;20148;-67
2022/10/22 07:48:31;;;;;;;11.60;4.63;;;13.30;99.90;;;;;;5090938;28;20390;-68
2022/10/22 07:50:57;;;;;;;10.55;5.03;;;13.30;99.90;;;;;;5089761;28;20052;-68
2022/10/22 07:53:23;;;;;;;10.35;5.03;;;13.40;99.90;;;;;;5090057;28;20046;-68
2022/10/22 07:55:49;;;;;;;13.98;4.95;;;13.40;99.90;;;;;;5089703;28;20032;-68
2022/10/22 07:58:20;;;;;;;13.52;5.05;;;13.50;99.90;;;;;;5119996;27;20048;-68
2022/10/22 08:00:46;;;;;;;10.32;4.88;;;13.50;99.90;;;;;;5090563;28;20040;-68
2022/10/22 08:03:13;;;;;;;12.68;4.72;;;13.50;99.90;;;;;;5090166;28;20165;-68
2022/10/22 08:05:42;;;;;;;9.38;5.22;;;13.60;99.90;;;;;;5090634;28;20040;-70
2022/10/22 08:08:08;;;;;;;8.23;4.95;;;13.70;99.90;;;;;;5089222;28;20040;-67
2022/10/22 08:10:34;;;;;;;14.98;5.18;;;13.80;99.90;;;;;;5089671;28;20173;-67
2022/10/22 08:13:00;;;;;;;7.90;4.22;;;13.90;99.90;;;;;;5089220;28;20126;-67
2022/10/22 08:15:26;;;;;;;11.38;4.70;;;13.90;99.90;;;;;;5090169;28;20028;-67
2022/10/22 08:17:52;;;;;;;9.18;4.00;;;14.00;99.90;;;;;;5090645;28;20036;-68
2022/10/22 08:20:18;;;;;;;9.40;4.03;;;14.10;99.90;;;;;;5090151;28;20036;-68
2022/10/22 08:22:44;;;;;;;12.50;4.95;;;14.20;99.90;;;;;;5088950;28;20142;-68
2022/10/22 08:25:10;;;;;;;12.00;3.70;;;14.30;99.90;;;;;;5089453;28;20119;-69
2022/10/22 08:27:36;;;;;;;9.85;3.97;;;14.40;99.90;;;;;;5089085;28;20052;-68
2022/10/22 08:30:03;;;;;;;12.40;4.35;;;14.40;99.90;;;;;;5090321;28;20090;-68
2022/10/22 08:32:29;;;;;;;12.32;3.92;;;14.50;99.90;;;;;;5089797;28;20031;-68
2022/10/22 08:34:55;;;;;;;6.78;3.42;;;14.60;99.90;;;;;;5089603;28;20036;-69
2022/10/22 08:37:21;;;;;;;9.60;3.45;;;14.70;99.90;;;;;;5086361;28;20386;-68
2022/10/22 08:39:46;;;;;;;12.15;3.95;;;14.70;99.90;;;;;;5088406;28;20070;-68
2022/10/22 08:42:47;;;;;;;12.25;3.70;;;14.80;99.90;;;;;;5089381;28;20044;-68
2022/10/22 08:45:43;;;;;;;9.88;3.13;;;15.00;99.90;;;;;;5083233;28;20044;-68
2022/10/22 08:48:37;;;;;;;9.38;3.65;;;15.10;99.90;;;;;;5089058;28;20343;-68
2022/10/22 08:51:03;;;;;;;10.98;3.80;;;15.30;99.90;;;;;;5086364;28;20060;-69
2022/10/22 08:54:07;;;;;;;9.40;3.83;;;15.50;99.90;;;;;;5087958;28;20032;-69
2022/10/22 08:56:36;;;;;;;8.55;3.03;;;15.60;99.90;;;;;;5088237;28;20032;-69
2022/10/22 08:59:16;;;;;;;9.50;3.10;;;15.60;99.90;;;;;;5090043;28;20043;-68
2022/10/22 09:01:45;;;;;;;8.40;3.10;;;15.50;99.90;;;;;;5089549;28;20043;-67
2022/10/22 09:04:18;;;;;;;10.43;3.00;;;15.40;99.90;;;;;;5089747;28;20433;-68
2022/10/22 09:06:44;;;;;;;9.90;3.20;;;15.30;99.90;;;;;;5087672;28;20044;-68
2022/10/22 09:09:17;;;;;;;11.00;3.10;;;15.30;99.90;;;;;;5087992;28;20040;-69
2022/10/22 09:11:45;;;;;;;10.60;3.53;;;15.20;99.90;;;;;;5094798;28;20035;-69
2022/10/22 09:14:23;;;;;;;10.15;3.13;;;15.20;99.90;;;;;;5089458;28;20032;-68
2022/10/22 09:17:04;;;;;;;8.57;2.70;;;15.10;99.90;;;;;;5089204;28;20417;-68
2022/10/22 09:19:54;;;;;;;9.73;3.30;;;15.20;99.90;;;;;;5089628;28;20082;-68
2022/10/22 09:22:51;;;;;;;10.57;3.63;;;15.20;99.90;;;;;;5089424;28;20109;-68
2022/10/22 09:25:24;;;;;;;12.25;3.22;;;15.10;99.90;;;;;;5087687;28;20059;-67
2022/10/22 09:27:57;;;;;;;13.48;4.53;;;15.10;99.90;;;;;;5088933;28;20071;-69
2022/10/22 09:30:33;;;;;;;9.02;3.53;;;15.10;99.90;;;;;;5089088;28;20048;-68
2022/10/22 09:33:06;;;;;;;8.85;3.45;;;15.10;99.90;;;;;;5089583;28;20040;-68
2022/10/22 09:35:54;;;;;;;10.10;3.38;;;15.10;99.90;;;;;;5087257;28;20036;-68
2022/10/22 09:38:25;;;;;;;8.05;3.60;;;15.10;99.90;;;;;;5071350;28;20048;-67
2022/10/22 09:40:54;;;;;;;11.00;3.40;;;15.10;99.90;;;;;;5089347;28;20032;-67
2022/10/22 09:43:20;;;;;;;10.73;3.25;;;15.10;99.90;;;;;;5088870;28;20040;-68
2022/10/22 09:45:47;;;;;;;10.30;3.08;;;15.00;99.90;;;;;;5072516;28;20055;-68
2022/10/22 09:48:13;;;;;;;9.45;3.20;;;15.00;99.90;;;;;;5089196;28;20048;-69
2022/10/22 09:50:45;;;;;;;14.15;3.20;;;15.00;99.90;;;;;;5089020;28;20109;-67
2022/10/22 09:53:24;;;;;;;12.93;3.10;;;15.00;99.90;;;;;;5089210;28;20402;-68
2022/10/22 09:55:56;;;;;;;12.80;2.90;;;15.00;99.90;;;;;;5085673;28;20032;-68
2022/10/22 09:58:22;;;;;;;9.20;2.92;;;15.00;99.90;;;;;;5090216;28;20509;-67
2022/10/22 10:00:57;;;;;;;7.50;3.20;;;15.10;99.90;;;;;;5088064;28;20044;-69
2022/10/22 10:03:29;;;;;;;8.13;3.28;;;15.10;99.90;;;;;;5089128;28;20043;-68
2022/10/22 10:05:58;;;;;;;10.85;3.22;;;15.10;99.90;;;;;;5088264;28;20071;-67
2022/10/22 10:08:24;;;;;;;8.80;3.33;;;15.20;99.90;;;;;;5088764;28;20064;-68
2022/10/22 10:10:52;;;;;;;9.05;3.55;;;15.20;99.90;;;;;;5088617;28;20036;-68
2022/10/22 10:13:28;;;;;;;8.80;3.28;;;15.20;99.90;;;;;;5087492;28;20393;-68
2022/10/22 10:16:28;;;;;;;10.05;3.40;;;15.30;99.90;;;;;;5084806;28;20050;-67
2022/10/22 10:19:08;;;;;;;11.82;3.50;;;15.30;99.90;;;;;;5085519;28;20066;-68
2022/10/22 10:21:53;;;;;;;13.13;3.83;;;15.30;99.90;;;;;;5086848;28;20127;-68
2022/10/22 10:24:47;;;;;;;8.10;3.38;;;15.30;99.90;;;;;;5088754;28;20039;-68
2022/10/22 10:27:27;;;;;;;11.38;4.25;;;15.30;99.90;;;;;;5087968;28;20126;-68
2022/10/22 10:30:04;;;;;;;7.72;3.60;;;15.30;99.90;;;;;;5103753;28;20062;-68
2022/10/22 10:32:54;;;;;;;9.88;3.80;;;15.30;99.90;;;;;;5086441;28;20133;-67
2022/10/22 10:35:23;;;;;;;13.30;5.43;;;15.30;99.90;;;;;;5071246;28;20482;-67
2022/10/22 10:38:15;;;;;;;9.23;4.57;;;15.20;99.90;;;;;;5088356;28;20040;-68
2022/10/22 10:40:48;;;;;;;;;;;15.20;99.90;;;;;;5088374;28;20084;-68
2022/10/22 10:43:40;;;;;;;12.75;5.20;;;15.10;99.90;;;;;;5086953;28;19916;-68
2022/10/22 10:46:28;;;;;;;12.98;5.72;;;15.10;99.90;;;;;;5079902;28;20048;-67
2022/10/22 10:49:15;;;;;;;12.30;5.55;;;15.00;99.90;;;;;;5086207;28;20112;-69
2022/10/22 10:51:41;;;;;;;16.90;6.13;;;14.90;99.90;;;;;;5087760;28;20040;-68
2022/10/22 10:54:26;;;;;;;13.77;6.18;;;14.90;99.90;;;;;;5087861;28;20565;-68
2022/10/22 10:56:56;;;;;;;17.55;6.60;;;14.90;99.90;;;;;;5091170;28;20111;-67
2022/10/22 11:00:01;;;;;;;13.60;6.88;;;15.00;99.90;;;;;;5092185;28;20494;-67
2022/10/22 11:03:15;;;;;;;12.75;4.88;;;15.00;99.90;;;;;;5091807;28;20482;-67
2022/10/22 11:05:51;;;;;;;14.52;5.93;;;15.10;99.90;;;;;;4981644;28;20398;-68
2022/10/22 11:08:21;;;;;;;14.38;5.05;;;15.10;99.90;;;;;;4997550;28;20124;-68
2022/10/22 11:11:00;;;;;;;9.93;5.13;;;15.20;99.90;;;;;;5006114;28;20040;-68
2022/10/22 11:13:28;;;;;;;11.90;5.05;;;15.20;99.90;;;;;;5009192;28;20441;-68
2022/10/22 11:16:03;;;;;;;9.90;5.45;;;15.20;99.90;;;;;;4994600;28;20046;-68
2022/10/22 11:18:42;;;;;;;12.25;4.65;;;15.30;99.90;;;;;;5009324;28;20037;-70
2022/10/22 11:21:30;;;;;;;13.43;5.22;;;15.30;99.90;;;;;;4993002;28;20054;-68
2022/10/22 11:24:11;;;;;;;8.82;4.97;;;15.40;99.90;;;;;;4994753;28;20046;-68
2022/10/22 11:26:51;;;;;;;13.00;5.15;;;15.50;99.90;;;;;;4993156;28;20061;-68
2022/10/22 11:29:23;;;;;;;15.48;5.10;;;15.60;99.90;;;;;;4993894;28;20158;-69
2022/10/22 11:31:51;;;;;;;11.63;4.60;;;15.70;99.90;;;;;;4993412;28;20096;-67
2022/10/22 11:34:30;;;;;;;13.82;4.60;;;15.80;99.90;;;;;;4991767;28;20053;-67
2022/10/22 11:36:57;;;;;;;13.75;4.95;;;15.90;99.90;;;;;;4992822;28;20057;-69
2022/10/22 11:39:51;;;;;;;13.25;4.32;;;16.00;99.90;;;;;;5028318;28;20088;-69
2022/10/22 11:42:30;;;;;;;8.98;4.20;;;15.90;99.90;;;;;;5080862;28;20039;-68
2022/10/22 11:44:59;;;;;;;9.10;3.63;;;15.90;99.90;;;;;;5090784;28;20056;-68
2022/10/22 11:47:34;;;;;;;8.65;3.53;;;16.00;99.90;;;;;;5073537;28;20032;-68
2022/10/22 11:50:23;;;;;;;11.80;3.70;;;16.00;99.90;;;;;;5072552;28;20044;-68
2022/10/22 11:53:01;;;;;;;8.75;3.50;;;16.00;99.90;;;;;;5090863;28;20388;-68
2022/10/22 11:55:44;;;;;;;8.90;3.22;;;16.10;99.90;;;;;;5071991;28;20076;-70
2022/10/22 11:58:25;;;;;;;;;;;16.10;99.90;;;;;;5088439;28;20071;-69
2022/10/22 12:00:51;;;;;;;8.15;3.83;;;16.00;99.90;;;;;;5089309;28;19970;-69
2022/10/22 12:03:32;;;;;;;9.40;2.88;;;16.00;99.90;;;;;;5083465;28;20541;-68
2022/10/22 12:06:14;;;;;;;9.35;3.30;;;15.90;99.90;;;;;;5085066;28;20067;-68
2022/10/22 12:08:49;;;;;;;9.10;3.38;;;15.90;99.90;;;;;;5084008;28;20040;-68
2022/10/22 12:11:39;;;;;;;7.35;3.25;;;15.80;99.90;;;;;;5066518;28;20047;-69
2022/10/22 12:14:33;;;;;;;7.60;2.55;;;15.70;99.90;;;;;;5089982;28;20032;-68
2022/10/22 12:17:29;;;;;;;10.80;3.22;;;15.70;99.90;;;;;;5089177;28;20051;-68
2022/10/22 12:20:02;;;;;;;7.25;2.50;;;15.70;99.90;;;;;;4990393;28;20156;-68
2022/10/22 12:22:29;;;;;;;;;;;15.70;99.90;;;;;;4992221;28;20049;-69
2022/10/22 12:24:59;;;;;;;9.68;2.53;;;15.70;99.90;;;;;;5006941;28;19921;-68
2022/10/22 12:27:35;;;;;;;6.85;2.88;;;15.70;99.90;;;;;;4992714;28;20149;-69
2022/10/22 12:30:16;;;;;;;7.28;2.33;;;15.80;99.90;;;;;;4990957;28;20073;-68
2022/10/22 12:32:43;;;;;;;7.22;2.50;;;15.80;99.90;;;;;;4991058;28;20034;-70
2022/10/22 12:35:18;;;;;;;8.85;3.50;;;15.90;99.90;;;;;;4976249;28;20038;-68
2022/10/22 12:37:43;;;;;;;9.10;2.50;;;15.90;99.90;;;;;;4993010;28;20378;-68
2022/10/22 12:40:20;;;;;;;8.55;2.05;;;15.90;99.90;;;;;;4993273;28;20144;-69
2022/10/22 12:42:54;;;;;;;5.88;2.15;;;16.00;99.90;;;;;;4993220;28;20120;-68
2022/10/22 12:45:20;;;;;;;8.80;2.38;;;16.00;99.90;;;;;;4993040;28;20406;-67
2022/10/22 12:47:51;;;;;;;7.10;2.22;;;16.00;99.90;;;;;;4976777;28;20405;-69
2022/10/22 12:50:21;;;;;;;9.40;2.50;;;16.10;99.90;;;;;;5009279;28;20045;-70
2022/10/22 12:52:48;;;;;;;8.57;2.33;;;16.10;99.90;;;;;;4993142;28;20038;-69
2022/10/22 12:55:21;;;;;;;9.18;2.65;;;16.10;99.90;;;;;;5014187;28;20192;-68
2022/10/22 12:57:49;;;;;;;7.35;2.40;;;16.20;99.90;;;;;;5090245;28;20075;-69
2022/10/22 13:00:31;;;;;;;6.85;2.17;;;16.20;99.90;;;;;;5088698;28;20048;-69
2022/10/22 13:02:59;;;;;;;12.00;2.70;;;16.20;99.90;;;;;;5073530;28;20150;-68
2022/10/22 13:05:29;;;;;;;10.45;2.95;;;16.20;99.90;;;;;;5090142;28;20065;-68